sensor_id;sensor_type;location;lat;lon;timestamp;pressure;altitude;pressure_sealevel;temperature;humidity
38912;BME280;28444;48.056;14.408;2023-03-14T00:00:19;95816.22;;;6.03;88.61
38912;BME280;28444;48.056;14.408;2023-03-14T00:02:45;95814.81;;;5.93;89.72
38912;BME280;28444;48.056;14.408;2023-03-14T00:05:12;95821.66;;;5.94;89.23
38912;BME280;28444;48.056;14.408;2023-03-14T00:07:39;95829.19;;;5.95;88.74
38912;BME280;28444;48.056;14.408;2023-03-14T00:10:09;95833.06;;;6.02;88.10
38912;BME280;28444;48.056;14.408;2023-03-14T00:12:36;95836.91;;;5.99;88.16
38912;BME280;28444;48.056;14.408;2023-03-14T00:15:04;95832.50;;;5.94;89.02
38912;BME280;28444;48.056;14.408;2023-03-14T00:17:34;95830.34;;;6.02;88.88
38912;BME280;28444;48.056;14.408;2023-03-14T00:20:02;95846.63;;;6.02;88.75
38912;BME280;28444;48.056;14.408;2023-03-14T00:22:35;95849.06;;;6.17;88.21
38912;BME280;28444;48.056;14.408;2023-03-14T00:25:02;95847.47;;;6.34;87.93
38912;BME280;28444;48.056;14.408;2023-03-14T00:27:29;95855.34;;;6.30;87.75
38912;BME280;28444;48.056;14.408;2023-03-14T00:29:56;95861.91;;;6.26;88.37
38912;BME280;28444;48.056;14.408;2023-03-14T00:32:23;95870.75;;;6.27;88.08
38912;BME280;28444;48.056;14.408;2023-03-14T00:34:50;95869.63;;;6.30;87.53
38912;BME280;28444;48.056;14.408;2023-03-14T00:37:16;95874.34;;;6.30;87.99
38912;BME280;28444;48.056;14.408;2023-03-14T00:39:43;95876.91;;;6.18;87.91
38912;BME280;28444;48.056;14.408;2023-03-14T00:42:10;95878.22;;;6.07;88.23
38912;BME280;28444;48.056;14.408;2023-03-14T00:44:37;95883.88;;;5.92;88.81
38912;BME280;28444;48.056;14.408;2023-03-14T00:47:04;95920.53;;;5.73;88.50
38912;BME280;28444;48.056;14.408;2023-03-14T00:49:31;96033.56;;;5.61;89.16
38912;BME280;28444;48.056;14.408;2023-03-14T00:51:57;96007.63;;;5.41;89.88
38912;BME280;28444;48.056;14.408;2023-03-14T00:54:24;96037.94;;;5.47;90.67
38912;BME280;28444;48.056;14.408;2023-03-14T00:56:51;95981.97;;;5.42;91.35
38912;BME280;28444;48.056;14.408;2023-03-14T00:59:17;96017.81;;;5.50;91.22
38912;BME280;28444;48.056;14.408;2023-03-14T01:01:44;96001.16;;;5.53;91.04
38912;BME280;28444;48.056;14.408;2023-03-14T01:04:11;96032.16;;;5.60;90.57
38912;BME280;28444;48.056;14.408;2023-03-14T01:06:38;96022.13;;;5.53;90.01
38912;BME280;28444;48.056;14.408;2023-03-14T01:09:05;96039.94;;;5.46;90.62
38912;BME280;28444;48.056;14.408;2023-03-14T01:11:34;96043.94;;;5.45;90.97
38912;BME280;28444;48.056;14.408;2023-03-14T01:14:02;96043.63;;;5.41;90.96
38912;BME280;28444;48.056;14.408;2023-03-14T01:16:32;96003.78;;;5.34;91.84
38912;BME280;28444;48.056;14.408;2023-03-14T01:18:59;96016.91;;;5.38;92.02
38912;BME280;28444;48.056;14.408;2023-03-14T01:21:28;96019.25;;;5.51;91.72
38912;BME280;28444;48.056;14.408;2023-03-14T01:23:56;96033.56;;;5.61;90.99
38912;BME280;28444;48.056;14.408;2023-03-14T01:26:25;96031.19;;;5.75;90.29
38912;BME280;28444;48.056;14.408;2023-03-14T01:28:53;96019.41;;;5.90;89.48
38912;BME280;28444;48.056;14.408;2023-03-14T01:31:20;96002.53;;;5.91;89.99
38912;BME280;28444;48.056;14.408;2023-03-14T01:33:47;96006.53;;;5.90;89.59
38912;BME280;28444;48.056;14.408;2023-03-14T01:36:14;96009.25;;;5.90;89.98
38912;BME280;28444;48.056;14.408;2023-03-14T01:38:41;96021.44;;;5.99;89.44
38912;BME280;28444;48.056;14.408;2023-03-14T01:41:13;96024.47;;;6.13;88.45
38912;BME280;28444;48.056;14.408;2023-03-14T01:43:40;96034.66;;;6.22;88.26
38912;BME280;28444;48.056;14.408;2023-03-14T01:46:30;96047.50;;;6.31;88.12
38912;BME280;28444;48.056;14.408;2023-03-14T01:49:26;96048.13;;;6.39;87.44
38912;BME280;28444;48.056;14.408;2023-03-14T01:52:34;96042.25;;;6.53;87.12
38912;BME280;28444;48.056;14.408;2023-03-14T01:55:05;96042.69;;;6.59;86.38
38912;BME280;28444;48.056;14.408;2023-03-14T01:57:36;96028.81;;;6.55;86.25
38912;BME280;28444;48.056;14.408;2023-03-14T02:00:07;96020.38;;;6.70;86.00
38912;BME280;28444;48.056;14.408;2023-03-14T02:02:41;96023.53;;;6.76;85.21
38912;BME280;28444;48.056;14.408;2023-03-14T02:05:10;96012.38;;;6.82;84.75
38912;BME280;28444;48.056;14.408;2023-03-14T02:07:45;96004.38;;;6.84;83.98
38912;BME280;28444;48.056;14.408;2023-03-14T02:10:15;96008.66;;;6.87;84.39
38912;BME280;28444;48.056;14.408;2023-03-14T02:12:42;95998.22;;;6.83;84.15
38912;BME280;28444;48.056;14.408;2023-03-14T02:15:10;95995.94;;;6.80;84.34
38912;BME280;28444;48.056;14.408;2023-03-14T02:17:37;95995.34;;;6.81;84.37
38912;BME280;28444;48.056;14.408;2023-03-14T02:20:45;95996.50;;;6.78;83.43
38912;BME280;28444;48.056;14.408;2023-03-14T02:23:15;95998.22;;;6.83;83.70
38912;BME280;28444;48.056;14.408;2023-03-14T02:25:51;95999.22;;;6.88;83.51
38912;BME280;28444;48.056;14.408;2023-03-14T02:28:21;96002.22;;;6.92;82.46
38912;BME280;28444;48.056;14.408;2023-03-14T02:30:48;95995.47;;;6.93;82.04
38912;BME280;28444;48.056;14.408;2023-03-14T02:33:17;96000.47;;;6.96;82.99
38912;BME280;28444;48.056;14.408;2023-03-14T02:36:07;96016.06;;;6.96;82.78
38912;BME280;28444;48.056;14.408;2023-03-14T02:39:00;96038.97;;;7.03;82.50
38912;BME280;28444;48.056;14.408;2023-03-14T02:41:31;96042.66;;;7.17;81.22
38912;BME280;28444;48.056;14.408;2023-03-14T02:43:58;96045.66;;;7.21;81.00
38912;BME280;28444;48.056;14.408;2023-03-14T02:46:25;96041.91;;;7.26;80.27
38912;BME280;28444;48.056;14.408;2023-03-14T02:49:02;96046.78;;;7.37;80.51
38912;BME280;28444;48.056;14.408;2023-03-14T02:51:29;96053.06;;;7.40;80.31
38912;BME280;28444;48.056;14.408;2023-03-14T02:53:56;96057.06;;;7.39;80.92
38912;BME280;28444;48.056;14.408;2023-03-14T02:56:23;96051.19;;;7.42;80.99
38912;BME280;28444;48.056;14.408;2023-03-14T02:58:50;96057.88;;;7.51;81.71
38912;BME280;28444;48.056;14.408;2023-03-14T03:01:16;96045.69;;;7.62;82.38
38912;BME280;28444;48.056;14.408;2023-03-14T03:03:43;96035.66;;;7.64;81.57
38912;BME280;28444;48.056;14.408;2023-03-14T03:06:10;96031.38;;;7.61;82.03
38912;BME280;28444;48.056;14.408;2023-03-14T03:08:37;96022.06;;;7.64;82.79
38912;BME280;28444;48.056;14.408;2023-03-14T03:11:05;96014.31;;;7.70;83.50
38912;BME280;28444;48.056;14.408;2023-03-14T03:13:32;96007.13;;;7.75;83.06
38912;BME280;28444;48.056;14.408;2023-03-14T03:15:59;96019.91;;;7.94;82.48
38912;BME280;28444;48.056;14.408;2023-03-14T03:18:25;96027.22;;;7.91;81.81
38912;BME280;28444;48.056;14.408;2023-03-14T03:20:52;96015.69;;;7.81;82.42
38912;BME280;28444;48.056;14.408;2023-03-14T03:23:19;96011.41;;;7.78;83.48
38912;BME280;28444;48.056;14.408;2023-03-14T03:25:49;96023.19;;;7.71;84.31
38912;BME280;28444;48.056;14.408;2023-03-14T03:28:18;96025.75;;;7.69;85.22
38912;BME280;28444;48.056;14.408;2023-03-14T03:30:45;96027.75;;;7.68;84.49
38912;BME280;28444;48.056;14.408;2023-03-14T03:33:12;96029.78;;;7.68;84.52
38912;BME280;28444;48.056;14.408;2023-03-14T03:35:47;96024.06;;;7.64;83.32
38912;BME280;28444;48.056;14.408;2023-03-14T03:38:15;96043.81;;;7.64;83.96
38912;BME280;28444;48.056;14.408;2023-03-14T03:40:42;96055.00;;;7.59;84.15
38912;BME280;28444;48.056;14.408;2023-03-14T03:43:09;96052.16;;;7.57;84.30
38912;BME280;28444;48.056;14.408;2023-03-14T03:45:36;96046.53;;;7.64;84.34
38912;BME280;28444;48.056;14.408;2023-03-14T03:48:03;96050.50;;;7.73;84.39
38912;BME280;28444;48.056;14.408;2023-03-14T03:50:29;96067.28;;;7.69;85.08
38912;BME280;28444;48.056;14.408;2023-03-14T03:52:56;96076.56;;;7.76;84.90
38912;BME280;28444;48.056;14.408;2023-03-14T03:55:22;96082.69;;;7.86;85.12
38912;BME280;28444;48.056;14.408;2023-03-14T03:57:49;96076.19;;;8.01;84.90
38912;BME280;28444;48.056;14.408;2023-03-14T04:00:16;96053.78;;;8.12;84.39
38912;BME280;28444;48.056;14.408;2023-03-14T04:02:43;96047.97;;;8.28;83.11
38912;BME280;28444;48.056;14.408;2023-03-14T04:05:10;96046.28;;;8.23;83.45
38912;BME280;28444;48.056;14.408;2023-03-14T04:07:36;96050.22;;;8.31;83.56
38912;BME280;28444;48.056;14.408;2023-03-14T04:10:03;96046.28;;;8.23;83.89
38912;BME280;28444;48.056;14.408;2023-03-14T04:12:30;96045.31;;;8.18;84.03
38912;BME280;28444;48.056;14.408;2023-03-14T04:14:57;96038.06;;;8.32;84.01
38912;BME280;28444;48.056;14.408;2023-03-14T04:17:23;96041.72;;;8.47;83.37
38912;BME280;28444;48.056;14.408;2023-03-14T04:19:50;96025.94;;;8.45;83.71
38912;BME280;28444;48.056;14.408;2023-03-14T04:22:20;96029.72;;;8.40;84.06
38912;BME280;28444;48.056;14.408;2023-03-14T04:24:46;96051.25;;;8.57;83.74
38912;BME280;28444;48.056;14.408;2023-03-14T04:27:13;96049.44;;;8.50;84.16
38912;BME280;28444;48.056;14.408;2023-03-14T04:29:42;96054.03;;;8.48;83.83
38912;BME280;28444;48.056;14.408;2023-03-14T04:32:09;96045.59;;;8.65;83.66
38912;BME280;28444;48.056;14.408;2023-03-14T04:34:36;96058.69;;;8.78;83.32
38912;BME280;28444;48.056;14.408;2023-03-14T04:37:02;96052.97;;;8.74;83.98
38912;BME280;28444;48.056;14.408;2023-03-14T04:39:30;96059.03;;;8.73;83.37
38912;BME280;28444;48.056;14.408;2023-03-14T04:41:56;96066.88;;;8.78;84.14
38912;BME280;28444;48.056;14.408;2023-03-14T04:44:23;96062.84;;;9.01;84.49
38912;BME280;28444;48.056;14.408;2023-03-14T04:46:50;96076.22;;;9.30;82.81
38912;BME280;28444;48.056;14.408;2023-03-14T04:49:16;96060.81;;;9.46;81.74
38912;BME280;28444;48.056;14.408;2023-03-14T04:51:43;96067.22;;;9.51;81.17
38912;BME280;28444;48.056;14.408;2023-03-14T04:54:10;96083.25;;;9.56;81.84
38912;BME280;28444;48.056;14.408;2023-03-14T04:56:36;96103.47;;;9.63;81.27
38912;BME280;28444;48.056;14.408;2023-03-14T04:59:03;96093.16;;;9.73;80.37
38912;BME280;28444;48.056;14.408;2023-03-14T05:01:30;96087.22;;;9.77;80.12
38912;BME280;28444;48.056;14.408;2023-03-14T05:03:57;96092.41;;;9.73;80.85
38912;BME280;28444;48.056;14.408;2023-03-14T05:06:23;96089.94;;;9.77;80.35
38912;BME280;28444;48.056;14.408;2023-03-14T05:08:50;96109.25;;;9.69;81.23
38912;BME280;28444;48.056;14.408;2023-03-14T05:11:17;96116.25;;;9.60;82.15
38912;BME280;28444;48.056;14.408;2023-03-14T05:13:44;96125.88;;;9.61;82.56
38912;BME280;28444;48.056;14.408;2023-03-14T05:16:11;96138.41;;;9.55;83.88
38912;BME280;28444;48.056;14.408;2023-03-14T05:18:38;96140.78;;;9.49;84.79
38912;BME280;28444;48.056;14.408;2023-03-14T05:21:05;96138.50;;;9.33;88.02
38912;BME280;28444;48.056;14.408;2023-03-14T05:23:31;96147.50;;;9.36;89.16
38912;BME280;28444;48.056;14.408;2023-03-14T05:25:58;96151.59;;;9.25;90.11
38912;BME280;28444;48.056;14.408;2023-03-14T05:28:25;96144.22;;;9.16;91.77
38912;BME280;28444;48.056;14.408;2023-03-14T05:30:51;96135.16;;;9.02;92.76
38912;BME280;28444;48.056;14.408;2023-03-14T05:33:18;96122.28;;;8.92;94.07
38912;BME280;28444;48.056;14.408;2023-03-14T05:35:45;96115.16;;;8.87;94.29
38912;BME280;28444;48.056;14.408;2023-03-14T05:38:11;96125.91;;;8.85;95.93
38912;BME280;28444;48.056;14.408;2023-03-14T05:40:38;96125.09;;;8.83;97.88
38912;BME280;28444;48.056;14.408;2023-03-14T05:43:05;96122.16;;;8.69;98.26
38912;BME280;28444;48.056;14.408;2023-03-14T05:45:34;96119.03;;;8.63;97.50
38912;BME280;28444;48.056;14.408;2023-03-14T05:48:02;96131.25;;;8.62;98.90
38912;BME280;28444;48.056;14.408;2023-03-14T05:50:29;96128.25;;;8.58;100.00
38912;BME280;28444;48.056;14.408;2023-03-14T05:52:55;96119.09;;;8.53;100.00
38912;BME280;28444;48.056;14.408;2023-03-14T05:55:22;96116.84;;;8.50;100.00
38912;BME280;28444;48.056;14.408;2023-03-14T05:57:49;96132.19;;;8.45;100.00
38912;BME280;28444;48.056;14.408;2023-03-14T06:00:16;96121.88;;;8.43;100.00
38912;BME280;28444;48.056;14.408;2023-03-14T06:02:43;96126.28;;;8.49;100.00
38912;BME280;28444;48.056;14.408;2023-03-14T06:05:11;96123.00;;;8.50;100.00
38912;BME280;28444;48.056;14.408;2023-03-14T06:07:37;96136.88;;;8.54;100.00
38912;BME280;28444;48.056;14.408;2023-03-14T06:10:05;96131.63;;;8.47;100.00
38912;BME280;28444;48.056;14.408;2023-03-14T06:12:32;96125.72;;;8.50;100.00
38912;BME280;28444;48.056;14.408;2023-03-14T06:14:58;96119.16;;;8.43;100.00
38912;BME280;28444;48.056;14.408;2023-03-14T06:17:25;96113.16;;;8.35;100.00
38912;BME280;28444;48.056;14.408;2023-03-14T06:19:52;96107.66;;;8.45;100.00
38912;BME280;28444;48.056;14.408;2023-03-14T06:22:18;96094.38;;;8.39;100.00
38912;BME280;28444;48.056;14.408;2023-03-14T06:24:46;96087.78;;;8.42;100.00
38912;BME280;28444;48.056;14.408;2023-03-14T06:27:12;96071.03;;;8.27;100.00
38912;BME280;28444;48.056;14.408;2023-03-14T06:29:39;96075.34;;;8.30;100.00
38912;BME280;28444;48.056;14.408;2023-03-14T06:32:05;96070.63;;;8.20;100.00
38912;BME280;28444;48.056;14.408;2023-03-14T06:34:32;96068.97;;;8.15;100.00
38912;BME280;28444;48.056;14.408;2023-03-14T06:36:59;96067.09;;;8.18;100.00
38912;BME280;28444;48.056;14.408;2023-03-14T06:39:26;96065.78;;;8.19;100.00
38912;BME280;28444;48.056;14.408;2023-03-14T06:41:52;96065.47;;;8.25;100.00
38912;BME280;28444;48.056;14.408;2023-03-14T06:44:19;96060.47;;;8.21;100.00
38912;BME280;28444;48.056;14.408;2023-03-14T06:46:46;96053.28;;;8.26;100.00
38912;BME280;28444;48.056;14.408;2023-03-14T06:49:13;96055.88;;;8.24;100.00
38912;BME280;28444;48.056;14.408;2023-03-14T06:51:39;96061.47;;;8.26;100.00
38912;BME280;28444;48.056;14.408;2023-03-14T06:54:07;96059.31;;;8.24;100.00
38912;BME280;28444;48.056;14.408;2023-03-14T06:56:33;96055.88;;;8.24;100.00
38912;BME280;28444;48.056;14.408;2023-03-14T06:59:00;96047.84;;;8.26;100.00
38912;BME280;28444;48.056;14.408;2023-03-14T07:01:28;96031.75;;;8.30;100.00
38912;BME280;28444;48.056;14.408;2023-03-14T07:03:56;96037.47;;;8.34;100.00
38912;BME280;28444;48.056;14.408;2023-03-14T07:06:23;96027.41;;;8.36;100.00
38912;BME280;28444;48.056;14.408;2023-03-14T07:08:50;96024.84;;;8.38;100.00
38912;BME280;28444;48.056;14.408;2023-03-14T07:11:17;96026.09;;;8.47;100.00
38912;BME280;28444;48.056;14.408;2023-03-14T07:13:43;96029.78;;;8.52;100.00
38912;BME280;28444;48.056;14.408;2023-03-14T07:16:10;96023.03;;;8.53;100.00
38912;BME280;28444;48.056;14.408;2023-03-14T07:18:37;96032.31;;;8.59;100.00
38912;BME280;28444;48.056;14.408;2023-03-14T07:21:08;96017.38;;;8.60;100.00
38912;BME280;28444;48.056;14.408;2023-03-14T07:23:38;96013.13;;;8.57;100.00
38912;BME280;28444;48.056;14.408;2023-03-14T07:26:06;96005.75;;;8.60;100.00
38912;BME280;28444;48.056;14.408;2023-03-14T07:28:32;96014.31;;;8.66;100.00
38912;BME280;28444;48.056;14.408;2023-03-14T07:30:59;96012.00;;;8.72;99.44
38912;BME280;28444;48.056;14.408;2023-03-14T07:33:26;96020.94;;;8.63;100.00
38912;BME280;28444;48.056;14.408;2023-03-14T07:35:52;96025.69;;;8.62;100.00
38912;BME280;28444;48.056;14.408;2023-03-14T07:38:19;96018.09;;;8.61;99.73
38912;BME280;28444;48.056;14.408;2023-03-14T07:40:48;96034.38;;;8.71;98.22
38912;BME280;28444;48.056;14.408;2023-03-14T07:43:15;96037.28;;;8.84;97.37
38912;BME280;28444;48.056;14.408;2023-03-14T07:45:45;96032.66;;;8.87;98.12
38912;BME280;28444;48.056;14.408;2023-03-14T07:48:17;96043.84;;;9.03;98.72
38912;BME280;28444;48.056;14.408;2023-03-14T07:50:44;96056.53;;;8.98;98.01
38912;BME280;28444;48.056;14.408;2023-03-14T07:53:14;96067.66;;;8.90;97.91
38912;BME280;28444;48.056;14.408;2023-03-14T07:55:40;96076.06;;;8.95;98.74
38912;BME280;28444;48.056;14.408;2023-03-14T07:58:07;96093.91;;;8.86;98.54
38912;BME280;28444;48.056;14.408;2023-03-14T08:00:34;96098.16;;;8.77;99.95
38912;BME280;28444;48.056;14.408;2023-03-14T08:03:00;96113.47;;;8.82;100.00
38912;BME280;28444;48.056;14.408;2023-03-14T08:05:27;96115.94;;;8.78;100.00
38912;BME280;28444;48.056;14.408;2023-03-14T08:07:54;96120.47;;;8.85;100.00
38912;BME280;28444;48.056;14.408;2023-03-14T08:10:21;96122.13;;;8.79;100.00
38912;BME280;28444;48.056;14.408;2023-03-14T08:12:55;96133.31;;;8.73;99.63
38912;BME280;28444;48.056;14.408;2023-03-14T08:15:23;96139.81;;;8.68;99.00
38912;BME280;28444;48.056;14.408;2023-03-14T08:17:50;96140.84;;;8.63;99.29
38912;BME280;28444;48.056;14.408;2023-03-14T08:20:18;96140.88;;;8.53;99.25
38912;BME280;28444;48.056;14.408;2023-03-14T08:22:44;96143.09;;;8.45;100.00
38912;BME280;28444;48.056;14.408;2023-03-14T08:25:13;96146.56;;;8.36;99.71
38912;BME280;28444;48.056;14.408;2023-03-14T08:27:39;96159.06;;;8.29;100.00
38912;BME280;28444;48.056;14.408;2023-03-14T08:30:10;96159.25;;;8.12;100.00
38912;BME280;28444;48.056;14.408;2023-03-14T08:32:37;96158.09;;;8.15;100.00
38912;BME280;28444;48.056;14.408;2023-03-14T08:35:05;96164.44;;;8.08;100.00
38912;BME280;28444;48.056;14.408;2023-03-14T08:37:33;96158.19;;;7.95;100.00
38912;BME280;28444;48.056;14.408;2023-03-14T08:40:00;96152.28;;;7.99;100.00
38912;BME280;28444;48.056;14.408;2023-03-14T08:42:26;96157.84;;;8.01;100.00
38912;BME280;28444;48.056;14.408;2023-03-14T08:44:53;96166.72;;;8.11;100.00
38912;BME280;28444;48.056;14.408;2023-03-14T08:47:20;96166.75;;;8.02;100.00
38912;BME280;28444;48.056;14.408;2023-03-14T08:49:46;96172.06;;;8.00;100.00
38912;BME280;28444;48.056;14.408;2023-03-14T08:52:13;96186.22;;;8.08;100.00
38912;BME280;28444;48.056;14.408;2023-03-14T08:54:41;96194.81;;;8.04;100.00
38912;BME280;28444;48.056;14.408;2023-03-14T08:57:08;96193.97;;;8.02;100.00
38912;BME280;28444;48.056;14.408;2023-03-14T08:59:34;96184.38;;;8.01;100.00
38912;BME280;28444;48.056;14.408;2023-03-14T09:02:01;96175.06;;;7.94;100.00
38912;BME280;28444;48.056;14.408;2023-03-14T09:04:30;96168.47;;;7.97;100.00
38912;BME280;28444;48.056;14.408;2023-03-14T09:06:58;96169.19;;;7.88;100.00
38912;BME280;28444;48.056;14.408;2023-03-14T09:09:26;96169.09;;;7.76;100.00
38912;BME280;28444;48.056;14.408;2023-03-14T09:11:53;96163.25;;;7.70;100.00
38912;BME280;28444;48.056;14.408;2023-03-14T09:14:20;96161.53;;;7.65;100.00
38912;BME280;28444;48.056;14.408;2023-03-14T09:16:48;96164.78;;;7.73;100.00
38912;BME280;28444;48.056;14.408;2023-03-14T09:19:15;96174.84;;;7.61;100.00
38912;BME280;28444;48.056;14.408;2023-03-14T09:21:42;96180.13;;;7.59;100.00
38912;BME280;28444;48.056;14.408;2023-03-14T09:24:09;96180.00;;;7.66;100.00
38912;BME280;28444;48.056;14.408;2023-03-14T09:26:35;96176.72;;;7.58;100.00
38912;BME280;28444;48.056;14.408;2023-03-14T09:29:02;96188.19;;;7.57;100.00
38912;BME280;28444;48.056;14.408;2023-03-14T09:31:29;96184.16;;;7.58;100.00
38912;BME280;28444;48.056;14.408;2023-03-14T09:33:56;96180.72;;;7.67;100.00
38912;BME280;28444;48.056;14.408;2023-03-14T09:36:22;96180.56;;;7.65;100.00
38912;BME280;28444;48.056;14.408;2023-03-14T09:38:49;96162.41;;;7.58;100.00
38912;BME280;28444;48.056;14.408;2023-03-14T09:41:21;96168.13;;;7.62;100.00
38912;BME280;28444;48.056;14.408;2023-03-14T09:43:49;96160.38;;;7.68;100.00
38912;BME280;28444;48.056;14.408;2023-03-14T09:46:19;96167.56;;;7.54;100.00
38912;BME280;28444;48.056;14.408;2023-03-14T09:48:47;96171.56;;;7.53;100.00
38912;BME280;28444;48.056;14.408;2023-03-14T09:51:17;96177.28;;;7.57;100.00
38912;BME280;28444;48.056;14.408;2023-03-14T09:53:46;96185.31;;;7.64;100.00
38912;BME280;28444;48.056;14.408;2023-03-14T09:56:17;96180.88;;;7.59;100.00
38912;BME280;28444;48.056;14.408;2023-03-14T09:58:50;96190.47;;;7.41;100.00
38912;BME280;28444;48.056;14.408;2023-03-14T10:01:22;96177.31;;;7.37;100.00
38912;BME280;28444;48.056;14.408;2023-03-14T10:03:50;96182.31;;;7.31;100.00
38912;BME280;28444;48.056;14.408;2023-03-14T10:06:21;96183.03;;;7.22;100.00
38912;BME280;28444;48.056;14.408;2023-03-14T10:08:49;96193.34;;;7.23;100.00
38912;BME280;28444;48.056;14.408;2023-03-14T10:11:17;96192.75;;;7.25;100.00
38912;BME280;28444;48.056;14.408;2023-03-14T10:14:10;96198.75;;;7.33;100.00
38912;BME280;28444;48.056;14.408;2023-03-14T10:16:43;96195.03;;;7.29;100.00
38912;BME280;28444;48.056;14.408;2023-03-14T10:19:13;96192.19;;;7.17;100.00
38912;BME280;28444;48.056;14.408;2023-03-14T10:21:43;96189.31;;;7.15;100.00
38912;BME280;28444;48.056;14.408;2023-03-14T10:24:31;96197.91;;;7.21;100.00
38912;BME280;28444;48.056;14.408;2023-03-14T10:27:05;96189.31;;;7.05;100.00
38912;BME280;28444;48.056;14.408;2023-03-14T10:29:33;96176.00;;;6.99;100.00
38912;BME280;28444;48.056;14.408;2023-03-14T10:32:03;96176.88;;;7.12;100.00
38912;BME280;28444;48.056;14.408;2023-03-14T10:34:35;96173.00;;;7.15;100.00
38912;BME280;28444;48.056;14.408;2023-03-14T10:37:22;96165.56;;;7.25;99.99
38912;BME280;28444;48.056;14.408;2023-03-14T10:39:51;96163.44;;;7.23;100.00
38912;BME280;28444;48.056;14.408;2023-03-14T10:42:26;96153.97;;;7.34;99.54
38912;BME280;28444;48.056;14.408;2023-03-14T10:45:00;96158.72;;;7.24;100.00
38912;BME280;28444;48.056;14.408;2023-03-14T10:47:29;96159.41;;;7.24;100.00
38912;BME280;28444;48.056;14.408;2023-03-14T10:49:56;96156.53;;;7.22;100.00
38912;BME280;28444;48.056;14.408;2023-03-14T10:52:26;96158.28;;;7.37;100.00
38912;BME280;28444;48.056;14.408;2023-03-14T10:55:13;96166.13;;;7.43;99.59
38912;BME280;28444;48.056;14.408;2023-03-14T10:57:41;96172.44;;;7.45;100.00
38912;BME280;28444;48.056;14.408;2023-03-14T11:00:17;96166.84;;;7.53;100.00
38912;BME280;28444;48.056;14.408;2023-03-14T11:03:20;96167.72;;;7.56;100.00
38912;BME280;28444;48.056;14.408;2023-03-14T11:06:02;96154.94;;;7.58;100.00
38912;BME280;28444;48.056;14.408;2023-03-14T11:08:44;96148.50;;;7.54;100.00
38912;BME280;28444;48.056;14.408;2023-03-14T11:11:20;96151.94;;;7.64;100.00
38912;BME280;28444;48.056;14.408;2023-03-14T11:13:54;96138.88;;;7.72;99.01
38912;BME280;28444;48.056;14.408;2023-03-14T11:16:30;96137.19;;;7.67;99.33
38912;BME280;28444;48.056;14.408;2023-03-14T11:22:21;96145.63;;;7.81;98.50
38912;BME280;28444;48.056;14.408;2023-03-14T11:26:16;96130.06;;;8.03;98.27
38912;BME280;28444;48.056;14.408;2023-03-14T11:28:36;96126.13;;;8.15;97.44
38912;BME280;28444;48.056;14.408;2023-03-14T11:31:20;96113.44;;;8.39;96.20
38912;BME280;28444;48.056;14.408;2023-03-14T11:35:24;96108.53;;;8.48;94.88
38912;BME280;28444;48.056;14.408;2023-03-14T11:37:36;96121.81;;;8.53;95.84
38912;BME280;28444;48.056;14.408;2023-03-14T11:40:17;96123.94;;;8.64;96.13
38912;BME280;28444;48.056;14.408;2023-03-14T11:42:49;96114.06;;;8.81;95.02
38912;BME280;28444;48.056;14.408;2023-03-14T11:45:25;96106.28;;;8.87;94.03
38912;BME280;28444;48.056;14.408;2023-03-14T11:48:44;96106.47;;;8.79;93.33
38912;BME280;28444;48.056;14.408;2023-03-14T11:50:52;96112.28;;;8.85;93.83
38912;BME280;28444;48.056;14.408;2023-03-14T11:53:45;96106.72;;;8.83;93.69
38912;BME280;28444;48.056;14.408;2023-03-14T11:56:44;96105.66;;;8.88;93.53
38912;BME280;28444;48.056;14.408;2023-03-14T11:59:27;96099.09;;;9.03;93.86
38912;BME280;28444;48.056;14.408;2023-03-14T12:02:04;96108.72;;;9.04;94.13
38912;BME280;28444;48.056;14.408;2023-03-14T12:05:46;96112.66;;;9.13;93.38
38912;BME280;28444;48.056;14.408;2023-03-14T12:08:09;96111.03;;;9.20;92.57
38912;BME280;28444;48.056;14.408;2023-03-14T12:13:18;96113.84;;;9.43;90.25
38912;BME280;28444;48.056;14.408;2023-03-14T12:15:57;96119.88;;;9.42;90.33
38912;BME280;28444;48.056;14.408;2023-03-14T12:18:35;96119.97;;;9.32;90.09
38912;BME280;28444;48.056;14.408;2023-03-14T12:21:07;96106.50;;;9.12;89.69
38912;BME280;28444;48.056;14.408;2023-03-14T12:23:53;96109.81;;;9.11;90.81
38912;BME280;28444;48.056;14.408;2023-03-14T12:26:43;96119.53;;;9.14;90.29
38912;BME280;28444;48.056;14.408;2023-03-14T12:29:19;96111.59;;;9.18;90.35
38912;BME280;28444;48.056;14.408;2023-03-14T12:31:48;96113.84;;;9.10;91.92
38912;BME280;28444;48.056;14.408;2023-03-14T12:34:27;96110.44;;;9.21;91.01
38912;BME280;28444;48.056;14.408;2023-03-14T12:36:59;96107.34;;;9.15;91.35
38912;BME280;28444;48.056;14.408;2023-03-14T12:42:59;96103.84;;;9.03;90.83
38912;BME280;28444;48.056;14.408;2023-03-14T12:45:36;96103.38;;;9.06;90.11
38912;BME280;28444;48.056;14.408;2023-03-14T12:48:23;96093.41;;;8.99;90.93
38912;BME280;28444;48.056;14.408;2023-03-14T12:50:56;96086.38;;;8.96;89.82
38912;BME280;28444;48.056;14.408;2023-03-14T12:53:55;96083.78;;;8.98;92.04
38912;BME280;28444;48.056;14.408;2023-03-14T12:59:30;96074.91;;;8.98;90.01
38912;BME280;28444;48.056;14.408;2023-03-14T13:02:10;96067.31;;;8.96;89.93
38912;BME280;28444;48.056;14.408;2023-03-14T13:05:09;96067.81;;;9.04;89.69
38912;BME280;28444;48.056;14.408;2023-03-14T13:08:05;96064.97;;;9.02;87.98
38912;BME280;28444;48.056;14.408;2023-03-14T13:10:48;96056.72;;;9.24;87.74
38912;BME280;28444;48.056;14.408;2023-03-14T13:13:22;96072.22;;;9.09;87.61
38912;BME280;28444;48.056;14.408;2023-03-14T13:15:56;96074.00;;;9.05;88.49
38912;BME280;28444;48.056;14.408;2023-03-14T13:18:35;96068.28;;;9.01;88.39
38912;BME280;28444;48.056;14.408;2023-03-14T13:21:12;96066.84;;;9.00;89.40
38912;BME280;28444;48.056;14.408;2023-03-14T13:24:03;96077.03;;;8.99;89.92
38912;BME280;28444;48.056;14.408;2023-03-14T13:26:43;96078.19;;;8.96;90.03
38912;BME280;28444;48.056;14.408;2023-03-14T13:29:16;96072.03;;;8.96;89.65